createdAt,value
2022-09-15T00:02:17.882Z,100758.94
2022-09-15T00:04:44.357Z,100761.09
2022-09-15T00:07:10.977Z,100756.94
2022-09-15T00:09:37.457Z,100758.13
2022-09-15T00:12:04.534Z,100760.97
2022-09-15T00:14:30.907Z,100748.06
2022-09-15T00:16:57.386Z,100744.84
2022-09-15T00:19:23.801Z,100747.22
2022-09-15T00:21:50.175Z,100758.09
2022-09-15T00:24:16.540Z,100752.19
2022-09-15T00:26:42.943Z,100756.78
2022-09-15T00:29:11.101Z,100756.50
2022-09-15T00:31:37.499Z,100758.16
2022-09-15T00:34:04.854Z,100758.16
2022-09-15T00:36:31.536Z,100758.44
2022-09-15T00:38:58.269Z,100753.84
2022-09-15T00:41:25.547Z,100757.69
2022-09-15T00:44:00.573Z,100757.25
2022-09-15T00:46:38.276Z,100759.00
2022-09-15T00:49:29.349Z,100761.22
2022-09-15T00:52:14.122Z,100757.81
2022-09-15T00:54:47.813Z,100758.56
2022-09-15T00:57:20.874Z,100761.97
2022-09-15T00:59:48.833Z,100763.44
2022-09-15T01:02:21.563Z,100764.19
2022-09-15T01:04:53.696Z,100761.06
2022-09-15T01:07:37.381Z,100761.50
2022-09-15T01:10:17.648Z,100758.56
2022-09-15T01:12:44.106Z,100760.19
2022-09-15T01:15:10.667Z,100756.97
2022-09-15T01:18:05.364Z,100755.94
2022-09-15T01:20:57.082Z,100758.34
2022-09-15T01:23:47.292Z,100761.00
2022-09-15T01:26:42.246Z,100768.47
2022-09-15T01:29:39.555Z,100777.66
2022-09-15T01:32:30.607Z,100773.53
2022-09-15T01:35:10.673Z,100766.97
2022-09-15T01:37:43.272Z,100768.00
2022-09-15T01:40:12.453Z,100769.94
2022-09-15T01:42:41.419Z,100775.28
2022-09-15T01:45:17.666Z,100772.31
2022-09-15T01:47:47.316Z,100777.84
2022-09-15T01:50:21.524Z,100781.75
2022-09-15T01:52:52.364Z,100785.31
2022-09-15T01:55:25.218Z,100779.22
2022-09-15T01:57:51.687Z,100777.72
2022-09-15T02:00:18.276Z,100780.13
2022-09-15T02:02:50.623Z,100769.41
2022-09-15T02:05:26.068Z,100778.91
2022-09-15T02:08:05.034Z,100769.41
2022-09-15T02:10:58.783Z,100769.41
2022-09-15T02:13:42.788Z,100773.00
2022-09-15T02:16:19.828Z,100768.41
2022-09-15T02:19:02.923Z,100773.00
2022-09-15T02:21:46.780Z,100769.88
2022-09-15T02:24:19.256Z,100771.81
2022-09-15T02:26:49.506Z,100774.94
2022-09-15T02:29:19.657Z,100771.06
2022-09-15T02:31:48.620Z,100775.69
2022-09-15T02:34:21.405Z,100778.34
2022-09-15T02:36:50.623Z,100784.44
2022-09-15T02:39:20.989Z,100779.81
2022-09-15T02:41:48.735Z,100785.19
2022-09-15T02:44:15.455Z,100785.19
2022-09-15T02:46:41.923Z,100783.25
2022-09-15T02:49:08.313Z,100786.66
2022-09-15T02:51:35.316Z,100786.19
2022-09-15T02:54:01.694Z,100775.50
2022-09-15T02:56:28.113Z,100774.78
2022-09-15T02:58:54.657Z,100779.66
2022-09-15T03:01:21.126Z,100781.13
2022-09-15T03:03:47.579Z,100780.72
2022-09-15T03:06:17.047Z,100775.78
2022-09-15T03:08:50.972Z,100778.78
2022-09-15T03:11:20.041Z,100782.19
2022-09-15T03:13:47.841Z,100783.66
2022-09-15T03:16:17.141Z,100778.31
2022-09-15T03:18:43.543Z,100781.25
2022-09-15T03:21:13.151Z,100776.19
2022-09-15T03:23:40.807Z,100781.53
2022-09-15T03:26:07.938Z,100782.28
2022-09-15T03:28:34.838Z,100784.94
2022-09-15T03:31:01.968Z,100789.09
2022-09-15T03:33:29.716Z,100791.78
2022-09-15T03:35:56.288Z,100799.06
2022-09-15T03:38:23.112Z,100797.56
2022-09-15T03:41:05.230Z,100791.03
2022-09-15T03:43:32.324Z,100796.09
2022-09-15T03:45:59.304Z,100801.44
2022-09-15T03:48:27.864Z,100793.13
2022-09-15T03:50:54.383Z,100799.22
2022-09-15T03:53:21.112Z,100803.13
2022-09-15T03:55:48.887Z,100803.84
2022-09-15T03:58:17.342Z,100809.66
2022-09-15T04:00:44.219Z,100806.25
2022-09-15T04:03:10.666Z,100800.91
2022-09-15T04:05:38.612Z,100808.91
2022-09-15T04:08:05.490Z,100808.19
2022-09-15T04:10:32.345Z,100805.06
2022-09-15T04:12:58.881Z,100799.22
2022-09-15T04:15:25.559Z,100793.44
2022-09-15T04:17:52.168Z,100799.78
2022-09-15T04:20:18.979Z,100796.22
2022-09-15T04:22:45.406Z,100798.88
2022-09-15T04:25:12.068Z,100798.88
2022-09-15T04:27:38.852Z,100798.88
2022-09-15T04:30:07.352Z,100802.31
2022-09-15T04:32:35.601Z,100813.44
2022-09-15T04:35:03.896Z,100803.22
2022-09-15T04:37:31.595Z,100806.63
2022-09-15T04:39:58.202Z,100800.53
2022-09-15T04:42:25.150Z,100797.13
2022-09-15T04:44:51.608Z,100804.22
2022-09-15T04:47:18.098Z,100802.31
2022-09-15T04:49:44.636Z,100798.44
2022-09-15T04:52:11.475Z,100799.63
2022-09-15T04:54:37.958Z,100788.94
2022-09-15T04:57:04.739Z,100796.50
2022-09-15T04:59:31.448Z,100790.41
2022-09-15T05:01:57.998Z,100793.38
2022-09-15T05:04:24.543Z,100794.84
2022-09-15T05:06:51.218Z,100796.31
2022-09-15T05:09:17.900Z,100792.19
2022-09-15T05:11:44.386Z,100795.59
2022-09-15T05:14:11.355Z,100800.94
2022-09-15T05:16:38.021Z,100795.59
2022-09-15T05:19:04.681Z,100803.59
2022-09-15T05:21:32.088Z,100802.41
2022-09-15T05:23:58.578Z,100805.09
2022-09-15T05:26:28.266Z,100805.81
2022-09-15T05:28:55.971Z,100801.97
2022-09-15T05:31:28.061Z,100804.19
2022-09-15T05:33:55.087Z,100803.44
2022-09-15T05:36:25.045Z,100802.25
2022-09-15T05:38:53.458Z,100801.03
2022-09-15T05:41:20.870Z,100805.19
2022-09-15T05:43:48.940Z,100802.53
2022-09-15T05:46:16.922Z,100806.69
2022-09-15T05:48:43.998Z,100811.13
2022-09-15T05:51:11.525Z,100817.94
2022-09-15T05:53:38.663Z,100817.50
2022-09-15T05:56:15.994Z,100817.59
2022-09-15T05:58:45.550Z,100820.09
2022-09-15T06:01:20.991Z,100820.91
2022-09-15T06:03:48.249Z,100808.28
2022-09-15T06:06:15.147Z,100807.38
2022-09-15T06:08:50.072Z,100813.75
2022-09-15T06:11:20.851Z,100819.66
2022-09-15T06:13:48.182Z,100818.75
2022-09-15T06:16:19.307Z,100814.69
2022-09-15T06:18:47.243Z,100831.59
2022-09-15T06:21:19.542Z,100825.16
2022-09-15T06:23:50.622Z,100833.00
2022-09-15T06:26:18.965Z,100830.13
2022-09-15T06:28:56.874Z,100833.44
2022-09-15T06:31:24.468Z,100837.44
2022-09-15T06:33:53.340Z,100838.47
2022-09-15T06:36:21.755Z,100835.56
2022-09-15T06:38:48.809Z,100848.69
2022-09-15T06:41:16.060Z,100845.66
2022-09-15T06:43:43.510Z,100844.09
2022-09-15T06:46:15.834Z,100847.97
2022-09-15T06:48:46.349Z,100855.53
2022-09-15T06:51:16.993Z,100860.97
2022-09-15T06:53:44.124Z,100865.22
2022-09-15T06:56:16.474Z,100860.81
2022-09-15T06:58:43.808Z,100863.66
2022-09-15T07:01:25.746Z,100865.28
2022-09-15T07:03:52.624Z,100873.03
2022-09-15T07:06:19.728Z,100873.56
2022-09-15T07:08:46.684Z,100877.25
2022-09-15T07:11:13.913Z,100880.97
2022-09-15T07:13:41.045Z,100894.38
2022-09-15T07:16:09.982Z,100897.78
2022-09-15T07:18:42.332Z,100893.34
2022-09-15T07:21:13.944Z,100897.44
2022-09-15T07:23:40.965Z,100897.16
2022-09-15T07:26:38.244Z,100907.88
2022-09-15T07:29:06.677Z,100902.50
2022-09-15T07:31:36.816Z,100905.47
2022-09-15T07:34:04.654Z,100902.59
2022-09-15T07:36:34.754Z,100907.31
2022-09-15T07:39:06.589Z,100911.09
2022-09-15T07:41:33.764Z,100910.88
2022-09-15T07:44:00.742Z,100915.84
2022-09-15T07:46:32.108Z,100915.25
2022-09-15T07:48:59.127Z,100911.72
2022-09-15T07:51:26.600Z,100910.84
2022-09-15T07:53:53.797Z,100910.94
2022-09-15T07:56:21.606Z,100913.44
2022-09-15T07:58:49.036Z,100911.75
2022-09-15T08:01:16.804Z,100925.03
2022-09-15T08:03:46.191Z,100927.59
2022-09-15T08:06:13.532Z,100931.06
2022-09-15T08:08:40.951Z,100927.44
2022-09-15T08:11:19.442Z,100936.31
2022-09-15T08:13:47.445Z,100938.78
2022-09-15T08:16:16.907Z,100940.03
2022-09-15T08:18:47.330Z,100942.03
2022-09-15T08:21:16.425Z,100936.81
2022-09-15T08:23:43.545Z,100943.22
2022-09-15T08:26:14.117Z,100953.56
2022-09-15T08:28:41.774Z,100950.88
2022-09-15T08:31:10.264Z,100957.28
2022-09-15T08:33:38.954Z,100961.50
2022-09-15T08:36:13.338Z,100969.88
2022-09-15T08:38:43.608Z,100966.81
2022-09-15T08:41:24.251Z,100974.75
2022-09-15T08:44:36.249Z,100983.06
2022-09-15T08:47:20.393Z,100977.66
2022-09-15T08:50:07.800Z,100981.09
2022-09-15T08:52:52.893Z,100988.88
2022-09-15T08:55:33.335Z,100989.78
2022-09-15T08:57:59.815Z,100985.63
2022-09-15T09:00:35.783Z,100990.53
2022-09-15T09:03:19.066Z,100998.09
2022-09-15T09:06:03.861Z,100999.59
2022-09-15T09:08:30.726Z,100993.94
2022-09-15T09:11:12.642Z,100993.25
2022-09-15T09:13:47.696Z,100996.69
2022-09-15T09:16:53.921Z,100994.47
2022-09-15T09:20:03.348Z,100990.88
2022-09-15T09:22:35.662Z,100998.69
2022-09-15T09:25:21.090Z,100996.00
2022-09-15T09:27:51.023Z,100993.06
2022-09-15T09:30:20.492Z,100988.19
2022-09-15T09:32:49.944Z,100998.44
2022-09-15T09:35:28.260Z,100994.47
2022-09-15T09:37:55.417Z,100993.19
2022-09-15T09:40:22.628Z,100991.31
2022-09-15T09:42:49.410Z,100986.69
2022-09-15T09:45:18.654Z,100988.97
2022-09-15T09:47:46.928Z,100993.47
2022-09-15T09:50:38.951Z,100997.94
2022-09-15T09:53:33.211Z,101002.06
2022-09-15T09:56:11.832Z,101000.22
2022-09-15T09:58:38.517Z,100998.88
2022-09-15T10:01:14.359Z,101004.81
2022-09-15T10:03:43.119Z,101002.84
2022-09-15T10:06:15.895Z,101006.41
2022-09-15T10:09:05.190Z,101004.31
2022-09-15T10:11:45.727Z,101003.63
2022-09-15T10:14:33.192Z,100999.91
2022-09-15T10:17:23.062Z,101000.28
2022-09-15T10:19:54.976Z,101009.78
2022-09-15T10:22:30.450Z,101000.22
2022-09-15T10:24:58.666Z,100987.31
2022-09-15T10:27:33.978Z,100985.41
2022-09-15T10:30:12.667Z,100981.06
2022-09-15T10:32:40.866Z,100976.44
2022-09-15T10:35:15.152Z,100978.22
2022-09-15T10:37:58.656Z,100969.91
2022-09-15T10:40:28.123Z,100973.84
2022-09-15T10:43:08.318Z,100966.25
2022-09-15T10:45:51.019Z,100957.72
2022-09-15T10:48:23.434Z,100954.06
2022-09-15T10:50:59.057Z,100959.94
2022-09-15T10:53:38.495Z,100959.66
2022-09-15T10:56:31.950Z,100961.13
2022-09-15T10:59:03.668Z,100961.13
2022-09-15T11:01:30.402Z,100956.00
2022-09-15T11:04:35.163Z,100957.94
2022-09-15T11:07:13.347Z,100970.69
2022-09-15T11:09:57.543Z,100958.69
2022-09-15T11:12:43.445Z,100968.25
2022-09-15T11:15:27.976Z,100960.88
2022-09-15T11:18:24.078Z,100961.13
2022-09-15T11:21:14.806Z,100962.38
2022-09-15T11:24:10.128Z,100957.69
2022-09-15T11:26:52.394Z,100947.16
2022-09-15T11:29:22.134Z,100946.41
2022-09-15T11:31:54.905Z,100955.00
2022-09-15T11:34:35.777Z,100958.16
2022-09-15T11:37:12.977Z,100948.56
2022-09-15T11:39:48.752Z,100963.59
2022-09-15T11:42:25.041Z,100964.31
2022-09-15T11:44:51.712Z,100962.38
2022-09-15T11:47:31.891Z,100969.69
2022-09-15T11:50:11.094Z,100969.94
2022-09-15T11:53:11.033Z,100974.34
2022-09-15T11:55:43.348Z,100974.84
2022-09-15T11:58:50.323Z,100967.72
2022-09-15T12:01:20.288Z,100972.38
2022-09-15T12:04:16.847Z,100962.34
2022-09-15T12:06:54.020Z,100955.03
2022-09-15T12:09:21.461Z,100946.66
2022-09-15T12:11:51.679Z,100951.81
2022-09-15T12:14:32.422Z,100944.94
2022-09-15T12:16:59.661Z,100952.31
2022-09-15T12:19:32.221Z,100953.78
2022-09-15T12:22:10.698Z,100949.34
2022-09-15T12:25:01.638Z,100937.53
2022-09-15T12:27:28.642Z,100949.03
2022-09-15T12:29:57.157Z,100947.78
2022-09-15T12:32:29.195Z,100958.38
2022-09-15T12:35:04.036Z,100966.97
2022-09-15T12:37:55.952Z,100965.56
2022-09-15T12:40:34.472Z,100957.94
2022-09-15T12:43:11.517Z,100966.81
2022-09-15T12:45:39.652Z,100969.19
2022-09-15T12:48:18.853Z,100973.84
2022-09-15T12:50:54.619Z,100982.66
2022-09-15T12:53:25.551Z,100987.56
2022-09-15T12:56:06.827Z,100991.47
2022-09-15T12:58:37.978Z,100990.69
2022-09-15T13:01:22.906Z,100996.50
2022-09-15T13:03:55.342Z,101014.75
2022-09-15T13:06:27.243Z,100998.50
2022-09-15T13:09:07.007Z,101007.28
2022-09-15T13:11:34.480Z,101006.34
2022-09-15T13:14:04.078Z,100997.78
2022-09-15T13:16:39.413Z,101010.81
2022-09-15T13:19:35.814Z,101005.28
2022-09-15T13:22:11.395Z,101003.84
2022-09-15T13:25:00.761Z,101013.41
2022-09-15T13:27:39.873Z,101004.63
2022-09-15T13:30:21.360Z,100992.66
2022-09-15T13:33:02.742Z,100996.59
2022-09-15T13:35:32.095Z,100987.25
2022-09-15T13:38:31.399Z,100996.84
2022-09-15T13:41:33.151Z,101003.97
2022-09-15T13:44:36.651Z,100996.16
2022-09-15T13:47:37.782Z,100989.28
2022-09-15T13:50:14.367Z,100993.41
2022-09-15T13:52:43.724Z,100992.19
2022-09-15T13:55:26.203Z,100979.72
2022-09-15T14:00:56.872Z,100975.13
2022-09-15T14:03:36.891Z,100974.16
2022-09-15T14:06:11.797Z,100980.22
2022-09-15T14:08:39.793Z,100981.94
2022-09-15T14:11:11.816Z,100987.53
2022-09-15T14:13:43.264Z,100995.56
2022-09-15T14:16:25.374Z,101009.47
2022-09-15T14:18:54.800Z,101011.06
2022-09-15T14:21:24.904Z,101009.25
2022-09-15T14:23:54.834Z,101003.28
2022-09-15T14:26:25.321Z,101010.66
2022-09-15T14:29:20.944Z,101004.56
2022-09-15T14:31:48.884Z,101003.63
2022-09-15T14:34:22.371Z,101009.13
2022-09-15T14:37:01.937Z,101007.03
2022-09-15T14:39:28.578Z,101006.09
2022-09-15T14:41:55.113Z,101005.41
2022-09-15T14:47:28.520Z,101007.63
2022-09-15T14:50:15.997Z,101002.72
2022-09-15T14:53:20.573Z,101000.25
2022-09-15T14:56:22.204Z,101006.59
2022-09-15T14:58:54.257Z,101002.19
2022-09-15T15:01:37.905Z,100994.38
2022-09-15T15:04:18.945Z,100993.88
2022-09-15T15:06:55.796Z,101001.44
2022-09-15T15:09:34.578Z,101001.41
2022-09-15T15:12:06.794Z,100998.44
2022-09-15T15:14:35.198Z,100994.75
2022-09-15T15:17:07.947Z,100997.72
2022-09-15T15:19:39.689Z,100994.25
2022-09-15T15:22:19.966Z,101000.63
2022-09-15T15:24:49.515Z,100997.69
2022-09-15T15:27:34.142Z,101002.78
2022-09-15T15:30:31.013Z,101005.47
2022-09-15T15:33:06.776Z,101007.41
2022-09-15T15:35:35.616Z,101004.25
2022-09-15T15:38:12.752Z,101003.84
2022-09-15T15:40:40.592Z,101005.09
2022-09-15T15:43:25.140Z,101002.16
2022-09-15T15:46:03.508Z,101004.09
2022-09-15T15:48:37.840Z,101012.09
2022-09-15T15:51:06.548Z,101018.59
2022-09-15T15:53:34.304Z,101024.16
2022-09-15T15:56:01.132Z,101035.31
2022-09-15T15:58:27.975Z,101029.81
2022-09-15T16:00:58.852Z,101037.34
2022-09-15T16:03:25.542Z,101034.19
2022-09-15T16:05:58.789Z,101031.28
2022-09-15T16:08:38.604Z,101027.53
2022-09-15T16:11:08.217Z,101035.47
2022-09-15T16:13:34.697Z,101042.44
2022-09-15T16:16:01.730Z,101045.28
2022-09-15T16:18:29.291Z,101044.59
2022-09-15T16:20:55.925Z,101035.06
2022-09-15T16:23:23.421Z,101032.22
2022-09-15T16:25:59.216Z,101032.78
2022-09-15T16:28:26.081Z,101033.44
2022-09-15T16:30:52.492Z,101048.56
2022-09-15T16:33:19.084Z,101039.50
2022-09-15T16:35:45.893Z,101042.84
2022-09-15T16:38:12.364Z,101042.78
2022-09-15T16:40:38.792Z,101040.06
2022-09-15T16:43:10.250Z,101047.06
2022-09-15T16:45:40.583Z,101051.88
2022-09-15T16:48:08.432Z,101043.91
2022-09-15T16:50:35.301Z,101043.91
2022-09-15T16:53:01.878Z,101047.25
2022-09-15T16:55:51.423Z,101047.41
2022-09-15T16:58:19.849Z,101049.00
2022-09-15T17:00:49.026Z,101046.78
2022-09-15T17:03:17.933Z,101035.03
2022-09-15T17:05:48.685Z,101034.94
2022-09-15T17:08:17.682Z,101029.84
2022-09-15T17:10:44.755Z,101036.34
2022-09-15T17:13:17.548Z,101033.41
2022-09-15T17:15:45.735Z,101027.00
2022-09-15T17:18:15.343Z,101040.16
2022-09-15T17:20:43.544Z,101027.94
2022-09-15T17:23:20.350Z,101031.09
2022-09-15T17:25:52.660Z,101029.34
2022-09-15T17:28:24.687Z,101032.50
2022-09-15T17:30:53.060Z,101040.19
2022-09-15T17:33:20.472Z,101040.38
2022-09-15T17:35:47.469Z,101043.72
2022-09-15T17:38:14.678Z,101042.88
2022-09-15T17:40:41.806Z,101045.38
2022-09-15T17:43:24.241Z,101050.38
2022-09-15T17:45:51.124Z,101044.75
2022-09-15T17:48:18.123Z,101043.44
2022-09-15T17:50:46.153Z,101049.56
2022-09-15T17:53:15.113Z,101042.16
2022-09-15T17:55:42.100Z,101045.69
2022-09-15T17:58:09.008Z,101052.16
2022-09-15T18:00:40.249Z,101058.44
2022-09-15T18:03:28.908Z,101051.78
2022-09-15T18:05:58.479Z,101051.69
2022-09-15T18:08:25.922Z,101049.66
2022-09-15T18:10:52.484Z,101051.78
2022-09-15T18:13:22.289Z,101055.66
2022-09-15T18:15:49.861Z,101059.06
2022-09-15T18:18:18.763Z,101063.97
2022-09-15T18:20:45.764Z,101067.41
2022-09-15T18:23:18.241Z,101069.06
2022-09-15T18:25:46.955Z,101090.97
2022-09-15T18:28:15.265Z,101107.31
2022-09-15T18:30:45.222Z,101118.16
2022-09-15T18:33:24.658Z,101119.63
2022-09-15T18:35:53.987Z,101109.75
2022-09-15T18:38:21.748Z,101114.69
2022-09-15T18:40:53.178Z,101112.28
2022-09-15T18:43:21.729Z,101112.47
2022-09-15T18:45:48.480Z,101117.69
2022-09-15T18:48:15.818Z,101113.56
2022-09-15T18:50:44.242Z,101114.16
2022-09-15T18:53:10.843Z,101118.03
2022-09-15T18:55:40.072Z,101112.56
2022-09-15T18:58:06.697Z,101108.38
2022-09-15T19:00:33.081Z,101103.66
2022-09-15T19:03:02.120Z,101099.19
2022-09-15T19:05:29.876Z,101098.44
2022-09-15T19:07:57.192Z,101093.69
2022-09-15T19:10:25.145Z,101106.31
2022-09-15T19:12:51.656Z,101111.22
2022-09-15T19:15:18.369Z,101108.25
2022-09-15T19:17:44.989Z,101116.44
2022-09-15T19:20:14.937Z,101111.97
2022-09-15T19:22:41.878Z,101112.88
2022-09-15T19:25:09.946Z,101111.38
2022-09-15T19:27:37.945Z,101101.59
2022-09-15T19:30:05.700Z,101106.19
2022-09-15T19:32:36.943Z,101113.47
2022-09-15T19:35:04.694Z,101114.50
2022-09-15T19:37:32.171Z,101116.59
2022-09-15T19:39:59.035Z,101119.75
2022-09-15T19:42:25.664Z,101120.75
2022-09-15T19:44:52.035Z,101127.44
2022-09-15T19:47:18.745Z,101125.50
2022-09-15T19:49:45.201Z,101126.53
2022-09-15T19:52:13.172Z,101123.72
2022-09-15T19:54:40.416Z,101131.00
2022-09-15T19:57:06.932Z,101123.72
2022-09-15T19:59:34.131Z,101136.78
2022-09-15T20:02:01.460Z,101136.19
2022-09-15T20:04:28.659Z,101131.00
2022-09-15T20:06:55.162Z,101125.38
2022-09-15T20:09:22.194Z,101128.78
2022-09-15T20:11:49.008Z,101133.06
2022-09-15T20:14:16.246Z,101125.81
2022-09-15T20:16:43.178Z,101122.25
2022-09-15T20:19:09.961Z,101121.06
2022-09-15T20:21:49.691Z,101121.38
2022-09-15T20:24:16.889Z,101122.53
2022-09-15T20:26:43.293Z,101121.50
2022-09-15T20:29:10.079Z,101120.47
2022-09-15T20:31:36.729Z,101128.78
2022-09-15T20:34:03.551Z,101136.50
2022-09-15T20:36:36.454Z,101134.41
2022-09-15T20:39:09.334Z,101128.63
2022-09-15T20:41:36.969Z,101125.22
2022-09-15T20:44:05.158Z,101126.69
2022-09-15T20:46:33.428Z,101117.63
2022-09-15T20:48:59.921Z,101125.34
2022-09-15T20:51:29.524Z,101122.97
2022-09-15T20:53:57.066Z,101124.59
2022-09-15T20:56:26.200Z,101122.38
2022-09-15T20:58:54.277Z,101127.09
2022-09-15T21:01:23.494Z,101130.66
2022-09-15T21:03:50.407Z,101127.38
2022-09-15T21:06:23.822Z,101129.00
2022-09-15T21:08:50.645Z,101139.84
2022-09-15T21:11:19.308Z,101137.31
2022-09-15T21:13:47.280Z,101138.34
2022-09-15T21:16:18.312Z,101130.16
2022-09-15T21:18:45.316Z,101126.59
2022-09-15T21:21:14.859Z,101135.78
2022-09-15T21:24:03.943Z,101136.22
2022-09-15T21:26:58.370Z,101139.31
2022-09-15T21:29:26.351Z,101136.03
2022-09-15T21:31:53.041Z,101141.94
2022-09-15T21:34:22.470Z,101143.88
2022-09-15T21:36:51.614Z,101144.03
2022-09-15T21:39:18.304Z,101144.91
2022-09-15T21:41:44.773Z,101150.06
2022-09-15T21:44:11.615Z,101142.38
2022-09-15T21:46:38.037Z,101141.19
2022-09-15T21:49:05.564Z,101141.94
2022-09-15T21:51:33.653Z,101142.50
2022-09-15T21:54:00.619Z,101146.03
2022-09-15T21:56:29.086Z,101145.88
2022-09-15T21:58:58.139Z,101148.09
2022-09-15T22:01:30.177Z,101152.69
2022-09-15T22:03:58.493Z,101149.59
2022-09-15T22:06:29.070Z,101153.00
2022-09-15T22:08:56.108Z,101163.34
2022-09-15T22:11:25.168Z,101158.47
2022-09-15T22:13:51.786Z,101155.47
2022-09-15T22:16:21.266Z,101148.63
2022-09-15T22:18:48.805Z,101144.03
2022-09-15T22:21:23.661Z,101139.47
2022-09-15T22:23:53.582Z,101140.63
2022-09-15T22:26:22.417Z,101136.81
2022-09-15T22:28:49.187Z,101122.41
2022-09-15T22:31:18.255Z,101120.59
2022-09-15T22:33:44.836Z,101122.84
2022-09-15T22:36:12.865Z,101115.13
2022-09-15T22:38:39.852Z,101119.72
2022-09-15T22:41:09.169Z,101121.97
2022-09-15T22:43:36.709Z,101124.22
2022-09-15T22:46:06.219Z,101120.38
2022-09-15T22:48:33.142Z,101117.38
2022-09-15T22:51:03.138Z,101118.97
2022-09-15T22:53:29.569Z,101120.59
2022-09-15T22:56:08.429Z,101111.56
2022-09-15T22:58:38.553Z,101113.28
2022-09-15T23:01:12.282Z,101120.72
2022-09-15T23:03:39.574Z,101120.84
2022-09-15T23:06:07.644Z,101122.44
2022-09-15T23:08:34.712Z,101124.50
2022-09-15T23:11:02.362Z,101124.19
2022-09-15T23:13:28.977Z,101121.66
2022-09-15T23:15:55.715Z,101122.81
2022-09-15T23:18:22.260Z,101122.94
2022-09-15T23:20:55.596Z,101134.03
2022-09-15T23:23:22.021Z,101133.72
2022-09-15T23:25:48.474Z,101134.47
2022-09-15T23:28:18.024Z,101135.22
2022-09-15T23:30:44.638Z,101132.56
2022-09-15T23:33:11.288Z,101137.44
2022-09-15T23:35:40.556Z,101125.91
2022-09-15T23:38:06.929Z,101117.19
2022-09-15T23:40:33.338Z,101119.09
2022-09-15T23:43:00.001Z,101110.66
2022-09-15T23:45:26.416Z,101117.19
2022-09-15T23:47:53.038Z,101115.56
2022-09-15T23:50:19.457Z,101114.09
2022-09-15T23:52:45.866Z,101123.69
2022-09-15T23:55:12.319Z,101119.09
2022-09-15T23:57:38.766Z,101126.22
